sensor_id;sensor_type;location;lat;lon;timestamp;pressure;altitude;pressure_sealevel;temperature;humidity
39773;BME280;25451;51.960;6.250;2022-07-23T00:02:23;101758.66;;;19.03;61.94
39773;BME280;25451;51.960;6.250;2022-07-23T00:04:48;101757.53;;;18.99;62.02
39773;BME280;25451;51.960;6.250;2022-07-23T00:07:13;101772.66;;;19.03;62.11
39773;BME280;25451;51.960;6.250;2022-07-23T00:09:39;101767.34;;;18.97;61.99
39773;BME280;25451;51.960;6.250;2022-07-23T00:12:04;101769.84;;;18.98;62.00
39773;BME280;25451;51.960;6.250;2022-07-23T00:14:30;101775.16;;;18.95;61.95
39773;BME280;25451;51.960;6.250;2022-07-23T00:16:55;101765.63;;;18.96;62.31
39773;BME280;25451;51.960;6.250;2022-07-23T00:19:20;101762.28;;;18.94;62.04
39773;BME280;25451;51.960;6.250;2022-07-23T00:21:46;101762.84;;;18.91;62.15
39773;BME280;25451;51.960;6.250;2022-07-23T00:24:11;101765.06;;;18.89;62.19
39773;BME280;25451;51.960;6.250;2022-07-23T00:26:36;101749.41;;;18.83;62.52
39773;BME280;25451;51.960;6.250;2022-07-23T00:29:02;101753.00;;;18.83;62.29
39773;BME280;25451;51.960;6.250;2022-07-23T00:31:27;101758.03;;;18.81;62.35
39773;BME280;25451;51.960;6.250;2022-07-23T00:33:52;101746.31;;;18.74;62.48
39773;BME280;25451;51.960;6.250;2022-07-23T00:36:21;101745.75;;;18.72;62.53
39773;BME280;25451;51.960;6.250;2022-07-23T00:38:48;101754.97;;;18.73;62.36
39773;BME280;25451;51.960;6.250;2022-07-23T00:41:14;101762.81;;;18.71;62.46
39773;BME280;25451;51.960;6.250;2022-07-23T00:43:39;101760.53;;;18.68;62.43
39773;BME280;25451;51.960;6.250;2022-07-23T00:46:04;101766.13;;;18.63;62.43
39773;BME280;25451;51.960;6.250;2022-07-23T00:48:29;101766.13;;;18.63;62.37
39773;BME280;25451;51.960;6.250;2022-07-23T00:50:55;101755.78;;;18.58;62.49
39773;BME280;25451;51.960;6.250;2022-07-23T00:53:20;101759.94;;;18.56;62.60
39773;BME280;25451;51.960;6.250;2022-07-23T00:55:47;101753.50;;;18.55;62.59
39773;BME280;25451;51.960;6.250;2022-07-23T00:58:12;101757.72;;;18.53;62.55
39773;BME280;25451;51.960;6.250;2022-07-23T01:00:38;101750.44;;;18.47;62.76
39773;BME280;25451;51.960;6.250;2022-07-23T01:03:03;101747.63;;;18.47;62.62
39773;BME280;25451;51.960;6.250;2022-07-23T01:05:29;101745.38;;;18.44;62.86
39773;BME280;25451;51.960;6.250;2022-07-23T01:07:54;101742.28;;;18.40;62.74
39773;BME280;25451;51.960;6.250;2022-07-23T01:10:19;101741.94;;;18.37;62.84
39773;BME280;25451;51.960;6.250;2022-07-23T01:13:02;101748.69;;;18.36;62.58
39773;BME280;25451;51.960;6.250;2022-07-23T01:15:29;101747.53;;;18.32;62.75
39773;BME280;25451;51.960;6.250;2022-07-23T01:17:54;101748.63;;;18.31;62.93
39773;BME280;25451;51.960;6.250;2022-07-23T01:20:20;101730.69;;;18.16;62.87
39773;BME280;25451;51.960;6.250;2022-07-23T01:22:46;101751.44;;;18.26;62.92
39773;BME280;25451;51.960;6.250;2022-07-23T01:25:12;101749.16;;;18.22;62.76
39773;BME280;25451;51.960;6.250;2022-07-23T01:27:38;101747.22;;;18.18;62.92
39773;BME280;25451;51.960;6.250;2022-07-23T01:30:04;101744.38;;;18.13;62.95
39773;BME280;25451;51.960;6.250;2022-07-23T01:32:29;101742.16;;;18.10;63.11
39773;BME280;25451;51.960;6.250;2022-07-23T01:34:55;101735.66;;;18.04;63.18
39773;BME280;25451;51.960;6.250;2022-07-23T01:37:20;101740.16;;;18.05;63.11
39773;BME280;25451;51.960;6.250;2022-07-23T01:39:46;101745.19;;;18.03;63.04
39773;BME280;25451;51.960;6.250;2022-07-23T01:42:11;101739.28;;;18.00;63.04
39773;BME280;25451;51.960;6.250;2022-07-23T01:44:36;101733.41;;;17.96;63.03
39773;BME280;25451;51.960;6.250;2022-07-23T01:47:02;101733.69;;;17.95;63.23
39773;BME280;25451;51.960;6.250;2022-07-23T01:49:27;101726.38;;;17.89;63.09
39773;BME280;25451;51.960;6.250;2022-07-23T01:51:52;101737.28;;;17.90;63.30
39773;BME280;25451;51.960;6.250;2022-07-23T01:54:31;101719.38;;;17.86;63.29
39773;BME280;25451;51.960;6.250;2022-07-23T01:56:57;101717.69;;;17.80;63.31
39773;BME280;25451;51.960;6.250;2022-07-23T01:59:23;101718.53;;;17.81;63.31
39773;BME280;25451;51.960;6.250;2022-07-23T02:01:49;101717.91;;;17.74;63.40
39773;BME280;25451;51.960;6.250;2022-07-23T02:04:16;101726.03;;;17.75;63.57
39773;BME280;25451;51.960;6.250;2022-07-23T02:06:42;101720.13;;;17.67;63.43
39773;BME280;25451;51.960;6.250;2022-07-23T02:09:07;101734.94;;;17.72;63.62
39773;BME280;25451;51.960;6.250;2022-07-23T02:11:32;101726.56;;;17.67;63.50
39773;BME280;25451;51.960;6.250;2022-07-23T02:13:58;101718.19;;;17.67;63.62
39773;BME280;25451;51.960;6.250;2022-07-23T02:16:23;101719.50;;;17.60;63.71
39773;BME280;25451;51.960;6.250;2022-07-23T02:18:48;101720.06;;;17.62;63.46
39773;BME280;25451;51.960;6.250;2022-07-23T02:21:14;101717.00;;;17.58;63.65
39773;BME280;25451;51.960;6.250;2022-07-23T02:23:39;101718.63;;;17.54;63.85
39773;BME280;25451;51.960;6.250;2022-07-23T02:26:04;101725.31;;;17.53;63.88
39773;BME280;25451;51.960;6.250;2022-07-23T02:28:29;101728.66;;;17.50;63.85
39773;BME280;25451;51.960;6.250;2022-07-23T02:30:55;101730.84;;;17.48;63.86
39773;BME280;25451;51.960;6.250;2022-07-23T02:33:20;101724.97;;;17.45;63.91
39773;BME280;25451;51.960;6.250;2022-07-23T02:35:45;101727.19;;;17.42;63.86
39773;BME280;25451;51.960;6.250;2022-07-23T02:38:11;101724.06;;;17.39;63.89
39773;BME280;25451;51.960;6.250;2022-07-23T02:40:36;101729.94;;;17.37;64.10
39773;BME280;25451;51.960;6.250;2022-07-23T02:43:01;101723.78;;;17.35;63.96
39773;BME280;25451;51.960;6.250;2022-07-23T02:45:26;101727.94;;;17.33;64.00
39773;BME280;25451;51.960;6.250;2022-07-23T02:47:52;101719.81;;;17.26;63.73
39773;BME280;25451;51.960;6.250;2022-07-23T02:50:17;101726.47;;;17.25;63.86
39773;BME280;25451;51.960;6.250;2022-07-23T02:52:43;101711.09;;;17.18;63.95
39773;BME280;25451;51.960;6.250;2022-07-23T02:55:08;101719.47;;;17.23;64.04
39773;BME280;25451;51.960;6.250;2022-07-23T02:57:34;101718.31;;;17.14;64.03
39773;BME280;25451;51.960;6.250;2022-07-23T02:59:59;101723.34;;;17.17;64.08
39773;BME280;25451;51.960;6.250;2022-07-23T03:02:24;101722.50;;;17.16;64.28
39773;BME280;25451;51.960;6.250;2022-07-23T03:04:50;101727.78;;;17.13;64.22
39773;BME280;25451;51.960;6.250;2022-07-23T03:07:17;101719.94;;;17.10;64.31
39773;BME280;25451;51.960;6.250;2022-07-23T03:09:43;101694.69;;;16.90;64.55
39773;BME280;25451;51.960;6.250;2022-07-23T03:12:08;101727.75;;;17.08;64.48
39773;BME280;25451;51.960;6.250;2022-07-23T03:14:34;101719.91;;;17.05;64.35
39773;BME280;25451;51.960;6.250;2022-07-23T03:16:59;101712.59;;;16.99;64.38
39773;BME280;25451;51.960;6.250;2022-07-23T03:19:27;101720.09;;;16.98;64.33
39773;BME280;25451;51.960;6.250;2022-07-23T03:21:52;101732.13;;;16.99;64.48
39773;BME280;25451;51.960;6.250;2022-07-23T03:24:17;101728.16;;;16.95;64.30
39773;BME280;25451;51.960;6.250;2022-07-23T03:26:43;101723.06;;;16.87;64.46
39773;BME280;25451;51.960;6.250;2022-07-23T03:29:09;101735.38;;;16.91;64.52
39773;BME280;25451;51.960;6.250;2022-07-23T03:31:34;101731.75;;;16.90;64.54
39773;BME280;25451;51.960;6.250;2022-07-23T03:34:00;101731.16;;;16.88;64.59
39773;BME280;25451;51.960;6.250;2022-07-23T03:36:25;101729.50;;;16.87;64.46
39773;BME280;25451;51.960;6.250;2022-07-23T03:38:51;101727.50;;;16.83;64.42
39773;BME280;25451;51.960;6.250;2022-07-23T03:41:17;101730.25;;;16.78;64.40
39773;BME280;25451;51.960;6.250;2022-07-23T03:43:42;101724.03;;;16.71;64.44
39773;BME280;25451;51.960;6.250;2022-07-23T03:46:08;101738.03;;;16.76;64.52
39773;BME280;25451;51.960;6.250;2022-07-23T03:48:33;101744.72;;;16.75;64.67
39773;BME280;25451;51.960;6.250;2022-07-23T03:50:58;101749.72;;;16.73;64.54
39773;BME280;25451;51.960;6.250;2022-07-23T03:53:24;101751.34;;;16.69;64.54
39773;BME280;25451;51.960;6.250;2022-07-23T03:55:49;101741.81;;;16.65;64.71
39773;BME280;25451;51.960;6.250;2022-07-23T03:58:14;101744.03;;;16.63;64.74
39773;BME280;25451;51.960;6.250;2022-07-23T04:00:40;101741.25;;;16.63;64.77
39773;BME280;25451;51.960;6.250;2022-07-23T04:03:05;101741.75;;;16.59;64.63
39773;BME280;25451;51.960;6.250;2022-07-23T04:05:30;101740.34;;;16.57;64.76
39773;BME280;25451;51.960;6.250;2022-07-23T04:07:56;101744.22;;;16.56;64.81
39773;BME280;25451;51.960;6.250;2022-07-23T04:10:21;101741.41;;;16.51;64.94
39773;BME280;25451;51.960;6.250;2022-07-23T04:12:46;101750.59;;;16.51;64.94
39773;BME280;25451;51.960;6.250;2022-07-23T04:15:12;101758.13;;;16.51;64.92
39773;BME280;25451;51.960;6.250;2022-07-23T04:17:37;101749.19;;;16.49;64.94
39773;BME280;25451;51.960;6.250;2022-07-23T04:20:03;101743.81;;;16.47;64.94
39773;BME280;25451;51.960;6.250;2022-07-23T04:22:28;101743.22;;;16.45;65.09
39773;BME280;25451;51.960;6.250;2022-07-23T04:24:54;101741.56;;;16.44;65.04
39773;BME280;25451;51.960;6.250;2022-07-23T04:27:19;101746.03;;;16.45;65.13
39773;BME280;25451;51.960;6.250;2022-07-23T04:29:44;101734.28;;;16.43;65.26
39773;BME280;25451;51.960;6.250;2022-07-23T04:32:09;101743.50;;;16.44;65.17
39773;BME280;25451;51.960;6.250;2022-07-23T04:34:35;101734.28;;;16.43;65.16
39773;BME280;25451;51.960;6.250;2022-07-23T04:37:00;101739.88;;;16.43;65.34
39773;BME280;25451;51.960;6.250;2022-07-23T04:39:25;101733.13;;;16.39;65.40
39773;BME280;25451;51.960;6.250;2022-07-23T04:41:51;101741.56;;;16.44;65.28
39773;BME280;25451;51.960;6.250;2022-07-23T04:44:16;101742.66;;;16.43;65.30
39773;BME280;25451;51.960;6.250;2022-07-23T04:46:41;101739.28;;;16.41;65.25
39773;BME280;25451;51.960;6.250;2022-07-23T04:49:07;101757.53;;;16.49;65.28
39773;BME280;25451;51.960;6.250;2022-07-23T04:51:32;101739.69;;;16.50;65.20
39773;BME280;25451;51.960;6.250;2022-07-23T04:53:57;101752.84;;;16.54;65.32
39773;BME280;25451;51.960;6.250;2022-07-23T04:56:23;101742.28;;;16.56;65.47
39773;BME280;25451;51.960;6.250;2022-07-23T04:58:48;101747.97;;;16.67;65.26
39773;BME280;25451;51.960;6.250;2022-07-23T05:01:14;101756.13;;;16.73;65.09
39773;BME280;25451;51.960;6.250;2022-07-23T05:03:39;101752.00;;;16.76;65.04
39773;BME280;25451;51.960;6.250;2022-07-23T05:06:04;101762.66;;;16.84;65.03
39773;BME280;25451;51.960;6.250;2022-07-23T05:08:30;101761.06;;;16.93;64.97
39773;BME280;25451;51.960;6.250;2022-07-23T05:10:55;101764.50;;;17.00;64.85
39773;BME280;25451;51.960;6.250;2022-07-23T05:13:21;101761.78;;;17.10;64.77
39773;BME280;25451;51.960;6.250;2022-07-23T05:15:46;101759.38;;;17.18;64.56
39773;BME280;25451;51.960;6.250;2022-07-23T05:18:11;101753.53;;;17.25;64.71
39773;BME280;25451;51.960;6.250;2022-07-23T05:20:37;101751.97;;;17.34;64.51
39773;BME280;25451;51.960;6.250;2022-07-23T05:23:03;101750.59;;;17.41;64.38
39773;BME280;25451;51.960;6.250;2022-07-23T05:25:28;101760.50;;;17.54;64.36
39773;BME280;25451;51.960;6.250;2022-07-23T05:27:53;101767.31;;;17.68;64.09
39773;BME280;25451;51.960;6.250;2022-07-23T05:30:19;101775.19;;;17.76;64.31
39773;BME280;25451;51.960;6.250;2022-07-23T05:32:44;101771.88;;;17.84;64.24
39773;BME280;25451;51.960;6.250;2022-07-23T05:35:10;101782.59;;;17.97;64.02
39773;BME280;25451;51.960;6.250;2022-07-23T05:37:35;101777.59;;;18.04;64.17
39773;BME280;25451;51.960;6.250;2022-07-23T05:40:06;101788.81;;;18.14;64.02
39773;BME280;25451;51.960;6.250;2022-07-23T05:42:33;101786.63;;;18.21;64.00
39773;BME280;25451;51.960;6.250;2022-07-23T05:44:58;101795.06;;;18.32;63.89
39773;BME280;25451;51.960;6.250;2022-07-23T05:47:24;101804.00;;;18.39;63.82
39773;BME280;25451;51.960;6.250;2022-07-23T05:49:49;101795.69;;;18.44;63.86
39773;BME280;25451;51.960;6.250;2022-07-23T05:52:14;101806.63;;;18.50;63.82
39773;BME280;25451;51.960;6.250;2022-07-23T05:54:40;101813.66;;;18.58;63.78
39773;BME280;25451;51.960;6.250;2022-07-23T05:57:05;101818.44;;;18.62;63.65
39773;BME280;25451;51.960;6.250;2022-07-23T05:59:30;101813.13;;;18.66;63.77
39773;BME280;25451;51.960;6.250;2022-07-23T06:01:56;101819.56;;;18.71;63.52
39773;BME280;25451;51.960;6.250;2022-07-23T06:04:21;101810.06;;;18.72;63.77
39773;BME280;25451;51.960;6.250;2022-07-23T06:06:46;101811.16;;;18.71;63.33
39773;BME280;25451;51.960;6.250;2022-07-23T06:09:12;101827.16;;;18.81;63.67
39773;BME280;25451;51.960;6.250;2022-07-23T06:11:39;101813.72;;;18.78;63.72
39773;BME280;25451;51.960;6.250;2022-07-23T06:14:04;101833.63;;;18.86;63.47
39773;BME280;25451;51.960;6.250;2022-07-23T06:16:30;101824.94;;;18.88;63.56
39773;BME280;25451;51.960;6.250;2022-07-23T06:18:55;101821.03;;;18.89;63.76
39773;BME280;25451;51.960;6.250;2022-07-23T06:21:20;101823.56;;;18.90;63.57
39773;BME280;25451;51.960;6.250;2022-07-23T06:23:46;101825.81;;;18.93;63.47
39773;BME280;25451;51.960;6.250;2022-07-23T06:26:11;101825.53;;;18.95;63.65
39773;BME280;25451;51.960;6.250;2022-07-23T06:28:36;101820.47;;;18.92;63.43
39773;BME280;25451;51.960;6.250;2022-07-23T06:31:01;101817.94;;;18.90;63.68
39773;BME280;25451;51.960;6.250;2022-07-23T06:33:27;101820.75;;;18.90;63.51
39773;BME280;25451;51.960;6.250;2022-07-23T06:35:52;101809.84;;;18.89;63.61
39773;BME280;25451;51.960;6.250;2022-07-23T06:38:17;101811.50;;;18.90;63.63
39773;BME280;25451;51.960;6.250;2022-07-23T06:40:43;101804.78;;;18.86;63.70
39773;BME280;25451;51.960;6.250;2022-07-23T06:43:09;101818.22;;;18.94;63.62
39773;BME280;25451;51.960;6.250;2022-07-23T06:45:35;101800.56;;;18.83;63.44
39773;BME280;25451;51.960;6.250;2022-07-23T06:48:00;101819.66;;;19.01;63.53
39773;BME280;25451;51.960;6.250;2022-07-23T06:50:27;101825.25;;;19.07;63.47
39773;BME280;25451;51.960;6.250;2022-07-23T06:52:53;101819.13;;;19.10;63.37
39773;BME280;25451;51.960;6.250;2022-07-23T06:55:18;101819.13;;;19.10;63.26
39773;BME280;25451;51.960;6.250;2022-07-23T06:57:43;101833.94;;;19.20;63.09
39773;BME280;25451;51.960;6.250;2022-07-23T07:00:09;101823.31;;;19.22;63.15
39773;BME280;25451;51.960;6.250;2022-07-23T07:02:35;101825.56;;;19.25;63.32
39773;BME280;25451;51.960;6.250;2022-07-23T07:05:00;101842.41;;;19.35;63.01
39773;BME280;25451;51.960;6.250;2022-07-23T07:07:25;101846.34;;;19.39;62.99
39773;BME280;25451;51.960;6.250;2022-07-23T07:09:51;101843.56;;;19.44;62.77
39773;BME280;25451;51.960;6.250;2022-07-23T07:12:16;101848.03;;;19.50;62.89
39773;BME280;25451;51.960;6.250;2022-07-23T07:14:41;101849.72;;;19.56;62.79
39773;BME280;25451;51.960;6.250;2022-07-23T07:17:07;101846.06;;;19.61;62.63
39773;BME280;25451;51.960;6.250;2022-07-23T07:19:32;101858.41;;;19.70;62.65
39773;BME280;25451;51.960;6.250;2022-07-23T07:21:57;101857.00;;;19.77;62.47
39773;BME280;25451;51.960;6.250;2022-07-23T07:24:23;101863.72;;;19.87;62.08
39773;BME280;25451;51.960;6.250;2022-07-23T07:26:48;101853.06;;;19.94;61.70
39773;BME280;25451;51.960;6.250;2022-07-23T07:29:13;101851.66;;;20.01;61.50
39773;BME280;25451;51.960;6.250;2022-07-23T07:31:39;101850.25;;;20.09;61.29
39773;BME280;25451;51.960;6.250;2022-07-23T07:34:04;101856.97;;;20.18;61.05
39773;BME280;25451;51.960;6.250;2022-07-23T07:36:30;101857.22;;;20.26;60.82
39773;BME280;25451;51.960;6.250;2022-07-23T07:38:55;101853.56;;;20.36;60.81
39773;BME280;25451;51.960;6.250;2022-07-23T07:41:20;101861.66;;;20.47;60.58
39773;BME280;25451;51.960;6.250;2022-07-23T07:43:49;101867.78;;;20.59;60.41
39773;BME280;25451;51.960;6.250;2022-07-23T07:46:15;101861.03;;;20.71;60.23
39773;BME280;25451;51.960;6.250;2022-07-23T07:48:40;101866.31;;;20.82;59.95
39773;BME280;25451;51.960;6.250;2022-07-23T07:51:05;101869.59;;;20.94;59.89
39773;BME280;25451;51.960;6.250;2022-07-23T07:53:31;101864.22;;;21.08;59.64
39773;BME280;25451;51.960;6.250;2022-07-23T07:55:56;101859.09;;;21.20;59.45
39773;BME280;25451;51.960;6.250;2022-07-23T07:58:22;101852.84;;;21.33;59.03
39773;BME280;25451;51.960;6.250;2022-07-23T08:00:47;101869.59;;;21.48;58.54
39773;BME280;25451;51.960;6.250;2022-07-23T08:03:13;101861.41;;;21.52;58.33
39773;BME280;25451;51.960;6.250;2022-07-23T08:05:38;101864.69;;;21.64;58.04
39773;BME280;25451;51.960;6.250;2022-07-23T08:08:03;101874.16;;;21.73;57.93
39773;BME280;25451;51.960;6.250;2022-07-23T08:10:30;101882.25;;;21.79;57.83
39773;BME280;25451;51.960;6.250;2022-07-23T08:12:57;101884.78;;;21.86;57.66
39773;BME280;25451;51.960;6.250;2022-07-23T08:15:23;101870.72;;;21.81;57.66
39773;BME280;25451;51.960;6.250;2022-07-23T08:17:49;101873.50;;;21.91;57.45
39773;BME280;25451;51.960;6.250;2022-07-23T08:20:17;101870.81;;;22.04;57.23
39773;BME280;25451;51.960;6.250;2022-07-23T08:25:25;101877.09;;;22.25;56.59
39773;BME280;25451;51.960;6.250;2022-07-23T08:27:51;101883.47;;;22.36;56.19
39773;BME280;25451;51.960;6.250;2022-07-23T08:30:17;101882.41;;;22.50;55.90
39773;BME280;25451;51.960;6.250;2022-07-23T08:32:55;101886.22;;;22.64;55.59
39773;BME280;25451;51.960;6.250;2022-07-23T08:35:29;101886.06;;;22.79;55.53
39773;BME280;25451;51.960;6.250;2022-07-23T08:37:57;101885.63;;;22.91;55.22
39773;BME280;25451;51.960;6.250;2022-07-23T08:40:25;101879.47;;;23.07;54.86
39773;BME280;25451;51.960;6.250;2022-07-23T08:42:51;101889.16;;;23.20;54.55
39773;BME280;25451;51.960;6.250;2022-07-23T08:45:20;101872.84;;;23.17;54.34
39773;BME280;25451;51.960;6.250;2022-07-23T08:47:49;101882.41;;;23.40;54.12
39773;BME280;25451;51.960;6.250;2022-07-23T08:50:14;101869.84;;;23.32;54.02
39773;BME280;25451;51.960;6.250;2022-07-23T08:52:40;101790.03;;;22.99;53.57
39773;BME280;25451;51.960;6.250;2022-07-23T08:55:06;101828.97;;;23.35;53.56
39773;BME280;25451;51.960;6.250;2022-07-23T08:57:32;101854.47;;;23.62;53.68
39773;BME280;25451;51.960;6.250;2022-07-23T08:59:58;101874.91;;;23.86;53.08
39773;BME280;25451;51.960;6.250;2022-07-23T09:02:23;101880.28;;;24.01;52.68
39773;BME280;25451;51.960;6.250;2022-07-23T09:04:48;101890.06;;;24.09;52.72
39773;BME280;25451;51.960;6.250;2022-07-23T09:07:14;101839.38;;;23.85;52.06
39773;BME280;25451;51.960;6.250;2022-07-23T09:09:39;101837.94;;;23.87;51.96
39773;BME280;25451;51.960;6.250;2022-07-23T09:12:06;101851.50;;;24.04;51.64
39773;BME280;25451;51.960;6.250;2022-07-23T09:14:45;101860.19;;;24.21;51.37
39773;BME280;25451;51.960;6.250;2022-07-23T09:17:16;101891.19;;;24.53;51.18
39773;BME280;25451;51.960;6.250;2022-07-23T09:19:43;101865.44;;;24.41;50.75
39773;BME280;25451;51.960;6.250;2022-07-23T09:22:18;101905.44;;;24.76;50.35
39773;BME280;25451;51.960;6.250;2022-07-23T09:27:48;101903.09;;;24.64;50.20
39773;BME280;25451;51.960;6.250;2022-07-23T09:30:14;101821.00;;;24.20;50.07
39773;BME280;25451;51.960;6.250;2022-07-23T09:32:39;101833.25;;;24.29;50.26
39773;BME280;25451;51.960;6.250;2022-07-23T09:35:06;101826.75;;;24.42;50.17
39773;BME280;25451;51.960;6.250;2022-07-23T09:37:31;101845.50;;;24.65;49.86
39773;BME280;25451;51.960;6.250;2022-07-23T09:40:05;101837.53;;;24.67;49.64
39773;BME280;25451;51.960;6.250;2022-07-23T09:42:31;101861.94;;;24.90;49.50
39773;BME280;25451;51.960;6.250;2022-07-23T09:44:57;101856.56;;;24.89;49.31
39773;BME280;25451;51.960;6.250;2022-07-23T09:47:24;101879.25;;;25.11;48.88
39773;BME280;25451;51.960;6.250;2022-07-23T09:50:07;101875.66;;;25.19;49.14
39773;BME280;25451;51.960;6.250;2022-07-23T09:55:09;101857.34;;;25.30;48.51
39773;BME280;25451;51.960;6.250;2022-07-23T09:57:35;101841.84;;;25.27;48.43
39773;BME280;25451;51.960;6.250;2022-07-23T10:00:05;101894.94;;;25.66;48.38
39773;BME280;25451;51.960;6.250;2022-07-23T10:02:32;101835.66;;;25.39;48.13
39773;BME280;25451;51.960;6.250;2022-07-23T10:05:00;101904.88;;;25.77;47.97
39773;BME280;25451;51.960;6.250;2022-07-23T10:07:26;101852.41;;;25.49;47.86
39773;BME280;25451;51.960;6.250;2022-07-23T10:09:55;101843.59;;;25.51;47.77
39773;BME280;25451;51.960;6.250;2022-07-23T10:12:20;101837.94;;;25.51;47.57
39773;BME280;25451;51.960;6.250;2022-07-23T10:15:13;101840.31;;;25.57;48.04
39773;BME280;25451;51.960;6.250;2022-07-23T10:17:38;101898.53;;;26.02;47.50
39773;BME280;25451;51.960;6.250;2022-07-23T10:20:05;101827.72;;;25.63;47.83
39773;BME280;25451;51.960;6.250;2022-07-23T10:22:34;101892.84;;;26.16;48.06
39773;BME280;25451;51.960;6.250;2022-07-23T10:25:32;101900.75;;;26.27;47.56
39773;BME280;25451;51.960;6.250;2022-07-23T10:28:16;101864.66;;;26.11;47.28
39773;BME280;25451;51.960;6.250;2022-07-23T10:31:00;101897.28;;;26.31;47.45
39773;BME280;25451;51.960;6.250;2022-07-23T10:36:32;101840.06;;;25.89;47.12
39773;BME280;25451;51.960;6.250;2022-07-23T10:41:39;101847.00;;;25.83;46.95
39773;BME280;25451;51.960;6.250;2022-07-23T10:44:17;101881.56;;;26.02;46.78
39773;BME280;25451;51.960;6.250;2022-07-23T10:47:02;101835.44;;;25.71;46.53
39773;BME280;25451;51.960;6.250;2022-07-23T10:49:47;101810.03;;;25.58;46.59
39773;BME280;25451;51.960;6.250;2022-07-23T10:52:25;101882.72;;;26.01;46.59
39773;BME280;25451;51.960;6.250;2022-07-23T10:54:55;101878.94;;;26.06;46.60
39773;BME280;25451;51.960;6.250;2022-07-23T10:57:22;101858.88;;;25.94;46.30
39773;BME280;25451;51.960;6.250;2022-07-23T11:02:47;101813.06;;;25.83;46.49
39773;BME280;25451;51.960;6.250;2022-07-23T11:05:15;101830.31;;;26.04;46.66
39773;BME280;25451;51.960;6.250;2022-07-23T11:10:38;101827.09;;;26.19;46.03
39773;BME280;25451;51.960;6.250;2022-07-23T11:13:40;101886.69;;;26.45;46.17
39773;BME280;25451;51.960;6.250;2022-07-23T11:16:08;101868.31;;;26.34;46.04
39773;BME280;25451;51.960;6.250;2022-07-23T11:32:00;101890.25;;;26.59;46.28
39773;BME280;25451;51.960;6.250;2022-07-23T11:37:07;101888.34;;;26.76;46.03
39773;BME280;25451;51.960;6.250;2022-07-23T11:39:33;101876.38;;;26.79;45.68
39773;BME280;25451;51.960;6.250;2022-07-23T11:42:00;101828.97;;;26.63;45.49
39773;BME280;25451;51.960;6.250;2022-07-23T11:44:30;101835.13;;;26.65;45.23
39773;BME280;25451;51.960;6.250;2022-07-23T11:47:00;101856.72;;;26.83;45.42
39773;BME280;25451;51.960;6.250;2022-07-23T11:49:27;101849.88;;;26.84;45.71
39773;BME280;25451;51.960;6.250;2022-07-23T11:52:14;101879.47;;;27.17;45.76
39773;BME280;25451;51.960;6.250;2022-07-23T11:54:54;101846.41;;;27.04;45.51
39773;BME280;25451;51.960;6.250;2022-07-23T11:57:24;101832.44;;;27.07;45.60
39773;BME280;25451;51.960;6.250;2022-07-23T11:59:53;101873.69;;;27.39;45.80
39773;BME280;25451;51.960;6.250;2022-07-23T12:02:20;101808.56;;;27.08;45.68
39773;BME280;25451;51.960;6.250;2022-07-23T12:04:48;101851.00;;;27.39;45.18
39773;BME280;25451;51.960;6.250;2022-07-23T12:10:11;101806.94;;;27.16;44.79
39773;BME280;25451;51.960;6.250;2022-07-23T12:12:41;101871.00;;;27.51;44.73
39773;BME280;25451;51.960;6.250;2022-07-23T12:15:08;101801.41;;;27.02;44.48
39773;BME280;25451;51.960;6.250;2022-07-23T12:17:36;101884.38;;;27.42;44.46
39773;BME280;25451;51.960;6.250;2022-07-23T12:20:04;101860.63;;;27.30;44.43
39773;BME280;25451;51.960;6.250;2022-07-23T12:22:37;101828.41;;;27.08;44.41
39773;BME280;25451;51.960;6.250;2022-07-23T12:25:05;101819.25;;;27.03;44.49
39773;BME280;25451;51.960;6.250;2022-07-23T12:27:31;101876.88;;;27.46;44.66
39773;BME280;25451;51.960;6.250;2022-07-23T12:29:57;101812.09;;;27.05;44.49
39773;BME280;25451;51.960;6.250;2022-07-23T12:32:27;101804.09;;;27.07;44.42
39773;BME280;25451;51.960;6.250;2022-07-23T12:35:08;101836.44;;;27.24;44.25
39773;BME280;25451;51.960;6.250;2022-07-23T12:37:41;101890.56;;;27.53;44.23
39773;BME280;25451;51.960;6.250;2022-07-23T12:40:27;101877.50;;;27.43;44.26
39773;BME280;25451;51.960;6.250;2022-07-23T12:42:59;101815.75;;;27.15;44.38
39773;BME280;25451;51.960;6.250;2022-07-23T12:45:26;101806.75;;;27.13;44.38
39773;BME280;25451;51.960;6.250;2022-07-23T12:47:55;101876.53;;;27.56;44.17
39773;BME280;25451;51.960;6.250;2022-07-23T12:50:42;101817.75;;;27.23;43.81
39773;BME280;25451;51.960;6.250;2022-07-23T12:53:14;101828.59;;;27.29;43.71
39773;BME280;25451;51.960;6.250;2022-07-23T12:55:40;101841.97;;;27.37;43.88
39773;BME280;25451;51.960;6.250;2022-07-23T12:58:08;101861.50;;;27.56;43.77
39773;BME280;25451;51.960;6.250;2022-07-23T13:00:59;101801.59;;;27.23;43.94
39773;BME280;25451;51.960;6.250;2022-07-23T13:03:36;101810.25;;;27.27;43.76
39773;BME280;25451;51.960;6.250;2022-07-23T13:06:04;101867.03;;;27.61;43.53
39773;BME280;25451;51.960;6.250;2022-07-23T13:08:31;101804.25;;;27.28;43.52
39773;BME280;25451;51.960;6.250;2022-07-23T13:10:57;101794.25;;;27.22;43.25
39773;BME280;25451;51.960;6.250;2022-07-23T13:13:25;101839.31;;;27.49;43.42
39773;BME280;25451;51.960;6.250;2022-07-23T13:15:51;101820.59;;;27.31;43.30
39773;BME280;25451;51.960;6.250;2022-07-23T13:18:18;101807.94;;;27.20;43.44
39773;BME280;25451;51.960;6.250;2022-07-23T13:20:45;101807.91;;;27.12;43.48
39773;BME280;25451;51.960;6.250;2022-07-23T13:23:10;101842.66;;;27.34;43.55
39773;BME280;25451;51.960;6.250;2022-07-23T13:25:36;101843.66;;;27.38;43.50
39773;BME280;25451;51.960;6.250;2022-07-23T13:28:02;101789.56;;;27.00;43.53
39773;BME280;25451;51.960;6.250;2022-07-23T13:30:27;101851.28;;;27.29;43.25